createdAt,value
2024-03-10T00:01:09.836Z,21.52
2024-03-10T00:03:37.473Z,25.67
2024-03-10T00:06:04.722Z,25.20
2024-03-10T00:10:58.012Z,21.52
2024-03-10T00:13:25.120Z,21.60
2024-03-10T00:15:51.668Z,24.95
2024-03-10T00:18:19.682Z,20.80
2024-03-10T00:20:46.229Z,22.58
2024-03-10T00:23:14.153Z,22.67
2024-03-10T00:25:44.285Z,22.77
2024-03-10T00:28:10.964Z,21.52
2024-03-10T00:30:37.531Z,26.25
2024-03-10T00:33:04.649Z,21.60
2024-03-10T00:35:32.623Z,25.40
2024-03-10T00:37:59.269Z,21.95
2024-03-10T00:40:26.003Z,21.30
2024-03-10T00:42:52.575Z,25.15
2024-03-10T00:45:19.309Z,22.58
2024-03-10T00:47:46.433Z,21.02
2024-03-10T00:52:42.178Z,24.45
2024-03-10T00:55:11.854Z,26.67
2024-03-10T00:57:39.334Z,22.15
2024-03-10T01:02:33.019Z,21.77
2024-03-10T01:04:59.646Z,20.10
2024-03-10T01:07:26.231Z,24.20
2024-03-10T01:09:56.270Z,18.23
2024-03-10T01:12:22.947Z,21.65
2024-03-10T01:14:49.580Z,23.67
2024-03-10T01:17:16.184Z,21.27
2024-03-10T01:19:45.228Z,20.60
2024-03-10T01:22:12.320Z,22.98
2024-03-10T01:24:39.733Z,21.55
2024-03-10T01:27:07.877Z,21.48
2024-03-10T01:29:36.041Z,22.90
2024-03-10T01:32:04.387Z,21.23
2024-03-10T01:34:31.758Z,21.25
2024-03-10T01:39:25.421Z,23.13
2024-03-10T01:44:22.281Z,22.23
2024-03-10T01:46:49.576Z,25.20
2024-03-10T01:51:43.410Z,21.00
2024-03-10T01:56:39.474Z,22.13
2024-03-10T01:59:07.230Z,28.27
2024-03-10T02:01:37.061Z,23.63
2024-03-10T02:04:04.659Z,30.20
2024-03-10T02:06:31.419Z,24.65
2024-03-10T02:08:58.393Z,30.90
2024-03-10T02:11:25.599Z,28.30
2024-03-10T02:13:52.210Z,26.77
2024-03-10T02:16:18.886Z,28.48
2024-03-10T02:18:46.806Z,25.60
2024-03-10T02:21:15.531Z,26.48
2024-03-10T02:23:48.066Z,26.52
2024-03-10T02:26:16.486Z,31.75
2024-03-10T02:29:05.452Z,24.98
2024-03-10T02:31:50.528Z,27.95
2024-03-10T02:34:35.638Z,24.63
2024-03-10T02:37:20.716Z,25.52
2024-03-10T02:40:05.982Z,30.60
2024-03-10T02:42:52.559Z,27.10
2024-03-10T02:45:37.942Z,24.17
2024-03-10T02:48:08.036Z,20.08
2024-03-10T02:50:36.010Z,25.58
2024-03-10T02:53:02.918Z,25.63
2024-03-10T02:55:29.499Z,26.33
2024-03-10T02:57:57.465Z,25.98
2024-03-10T03:00:24.072Z,23.83
2024-03-10T03:02:51.053Z,25.27
2024-03-10T03:05:20.742Z,29.15
2024-03-10T03:07:47.396Z,24.48
2024-03-10T03:10:14.228Z,24.13
2024-03-10T03:12:40.831Z,21.60
2024-03-10T03:15:10.813Z,24.67
2024-03-10T03:17:37.496Z,30.80
2024-03-10T03:20:12.670Z,24.27
2024-03-10T03:22:42.290Z,25.35
2024-03-10T03:25:09.192Z,29.02
2024-03-10T03:27:36.960Z,23.63
2024-03-10T03:30:03.613Z,28.55
2024-03-10T03:32:31.882Z,27.63
2024-03-10T03:34:58.987Z,25.75
2024-03-10T03:37:25.603Z,28.80
2024-03-10T03:39:52.157Z,25.13
2024-03-10T03:42:18.672Z,24.15
2024-03-10T03:44:50.913Z,25.20
2024-03-10T03:47:18.408Z,24.02
2024-03-10T03:49:46.959Z,28.88
2024-03-10T03:52:13.652Z,24.88
2024-03-10T03:54:43.517Z,27.13
2024-03-10T03:57:10.244Z,30.30
2024-03-10T03:59:39.142Z,24.50
2024-03-10T04:02:05.860Z,25.35
2024-03-10T04:04:32.623Z,31.13
2024-03-10T04:07:00.805Z,33.53
2024-03-10T04:09:27.742Z,26.73
2024-03-10T04:11:54.477Z,28.23
2024-03-10T04:14:21.369Z,27.27
2024-03-10T04:16:48.680Z,27.20
2024-03-10T04:19:15.410Z,28.52
2024-03-10T04:21:42.544Z,24.42
2024-03-10T04:24:11.999Z,31.75
2024-03-10T04:26:41.988Z,28.40
2024-03-10T04:29:09.907Z,26.75
2024-03-10T04:31:36.727Z,34.75
2024-03-10T04:34:03.325Z,23.33
2024-03-10T04:36:30.353Z,28.45
2024-03-10T04:38:57.236Z,27.98
2024-03-10T04:41:25.225Z,29.35
2024-03-10T04:43:52.360Z,27.65
2024-03-10T04:46:19.800Z,27.42
2024-03-10T04:51:14.338Z,26.60
2024-03-10T04:53:43.550Z,28.15
2024-03-10T04:56:10.585Z,30.27
2024-03-10T04:58:39.148Z,28.13
2024-03-10T05:01:05.829Z,30.75
2024-03-10T05:03:32.411Z,32.05
2024-03-10T05:05:59.008Z,28.45
2024-03-10T05:08:25.870Z,27.05
2024-03-10T05:10:52.596Z,34.30
2024-03-10T05:13:19.260Z,31.83
2024-03-10T05:15:48.833Z,29.42
2024-03-10T05:18:15.866Z,29.27
2024-03-10T05:20:42.499Z,29.23
2024-03-10T05:25:36.090Z,31.10
2024-03-10T05:28:02.730Z,28.90
2024-03-10T05:30:29.299Z,29.85
2024-03-10T05:32:57.254Z,30.52
2024-03-10T05:35:24.431Z,27.38
2024-03-10T05:37:51.108Z,30.27
2024-03-10T05:40:17.738Z,31.08
2024-03-10T05:42:44.324Z,34.83
2024-03-10T05:45:10.914Z,25.98
2024-03-10T05:47:37.599Z,25.42
2024-03-10T05:50:08.194Z,29.92
2024-03-10T05:52:34.989Z,29.77
2024-03-10T05:55:01.835Z,30.20
2024-03-10T05:57:30.520Z,26.88
2024-03-10T05:59:58.137Z,28.95
2024-03-10T06:02:24.891Z,27.63
2024-03-10T06:04:51.812Z,36.90
2024-03-10T06:07:20.069Z,25.63
2024-03-10T06:09:46.641Z,29.33
2024-03-10T06:12:13.390Z,28.00
2024-03-10T06:14:40.850Z,26.60
2024-03-10T06:19:55.073Z,26.05
2024-03-10T06:25:26.596Z,27.67
2024-03-10T06:27:53.195Z,31.42
2024-03-10T06:30:21.000Z,31.52
2024-03-10T06:32:48.492Z,30.45
2024-03-10T06:35:15.152Z,33.40
2024-03-10T06:37:43.130Z,30.27
2024-03-10T06:40:10.826Z,32.17
2024-03-10T06:42:37.883Z,28.58
2024-03-10T06:45:07.805Z,27.73
2024-03-10T06:47:36.053Z,36.67
2024-03-10T06:50:06.026Z,30.50
2024-03-10T06:52:33.689Z,32.38
2024-03-10T06:55:02.003Z,28.05
2024-03-10T06:57:31.149Z,28.52
2024-03-10T06:59:59.117Z,34.38
2024-03-10T07:02:28.016Z,28.55
2024-03-10T07:04:57.062Z,28.77
2024-03-10T07:07:25.286Z,30.23
2024-03-10T07:09:51.869Z,29.20
2024-03-10T07:12:19.862Z,36.00
2024-03-10T07:14:49.085Z,28.92
2024-03-10T07:17:16.710Z,28.13
2024-03-10T07:19:43.514Z,26.40
2024-03-10T07:22:10.113Z,29.45
2024-03-10T07:24:38.835Z,27.13
2024-03-10T07:27:06.797Z,27.65
2024-03-10T07:29:34.795Z,26.13
2024-03-10T07:32:01.812Z,32.53
2024-03-10T07:34:29.744Z,28.70
2024-03-10T07:36:56.416Z,31.23
2024-03-10T07:39:23.147Z,26.25
2024-03-10T07:41:49.903Z,33.03
2024-03-10T07:44:17.255Z,27.73
2024-03-10T07:49:12.533Z,27.90
2024-03-10T07:51:39.306Z,30.75
2024-03-10T07:54:06.207Z,23.58
2024-03-10T07:56:33.635Z,29.38
2024-03-10T07:59:00.621Z,25.58
2024-03-10T08:01:27.386Z,28.38
2024-03-10T08:03:56.830Z,25.75
2024-03-10T08:06:23.574Z,25.02
2024-03-10T08:08:50.322Z,30.02
2024-03-10T08:11:17.159Z,29.80
2024-03-10T08:13:45.791Z,24.75
2024-03-10T08:16:12.454Z,27.67
2024-03-10T08:18:39.041Z,25.58
2024-03-10T08:21:07.025Z,24.17
2024-03-10T08:23:33.760Z,24.38
2024-03-10T08:26:01.372Z,28.48
2024-03-10T08:28:28.111Z,26.33
2024-03-10T08:30:55.735Z,24.58
2024-03-10T08:33:22.758Z,24.77
2024-03-10T08:35:49.747Z,27.00
2024-03-10T08:38:17.899Z,23.55
2024-03-10T08:40:44.479Z,24.10
2024-03-10T08:43:11.051Z,29.33
2024-03-10T08:45:38.263Z,24.85
2024-03-10T08:48:10.463Z,23.52
2024-03-10T08:50:38.312Z,22.70
2024-03-10T08:53:07.888Z,25.00
2024-03-10T08:55:36.344Z,26.73
2024-03-10T08:58:04.547Z,26.35
2024-03-10T09:00:34.208Z,30.67
2024-03-10T09:03:01.265Z,26.75
2024-03-10T09:05:27.869Z,29.23
2024-03-10T09:07:56.350Z,28.52
2024-03-10T09:10:24.914Z,22.52
2024-03-10T09:12:53.280Z,27.67
2024-03-10T09:15:20.177Z,21.73
2024-03-10T09:17:47.300Z,23.73
2024-03-10T09:22:42.013Z,23.40
2024-03-10T09:25:13.937Z,20.67
2024-03-10T09:27:41.856Z,21.25
2024-03-10T09:30:14.269Z,19.00
2024-03-10T09:32:44.092Z,23.42
2024-03-10T09:35:11.164Z,25.60
2024-03-10T09:37:38.934Z,23.52
2024-03-10T09:40:07.980Z,22.67
2024-03-10T09:42:35.861Z,20.30
2024-03-10T09:45:06.993Z,21.45
2024-03-10T09:47:34.946Z,19.60
2024-03-10T09:50:06.595Z,20.75
2024-03-10T09:52:35.230Z,20.85
2024-03-10T09:55:01.874Z,21.77
2024-03-10T09:57:28.822Z,19.73
2024-03-10T09:59:55.647Z,20.77
2024-03-10T10:02:27.175Z,16.92
2024-03-10T10:04:59.062Z,18.52
2024-03-10T10:07:27.964Z,20.35
2024-03-10T10:09:56.041Z,20.40
2024-03-10T10:12:22.668Z,18.25
2024-03-10T10:14:49.251Z,17.92
2024-03-10T10:17:16.014Z,18.45
2024-03-10T10:19:42.969Z,15.75
2024-03-10T10:22:12.594Z,18.77
2024-03-10T10:24:39.290Z,17.58
2024-03-10T10:27:06.126Z,15.57
2024-03-10T10:29:49.180Z,17.08
2024-03-10T10:32:21.600Z,18.42
2024-03-10T10:34:48.283Z,18.33
2024-03-10T10:37:16.241Z,17.15
2024-03-10T10:39:42.815Z,16.75
2024-03-10T10:42:15.479Z,19.48
2024-03-10T10:44:47.927Z,21.85
2024-03-10T10:47:16.120Z,19.70
2024-03-10T10:49:42.890Z,16.45
2024-03-10T10:52:13.018Z,18.50
2024-03-10T10:54:41.960Z,16.15
2024-03-10T10:57:10.091Z,19.13
2024-03-10T10:59:37.419Z,18.95
2024-03-10T11:02:15.813Z,17.05
2024-03-10T11:04:43.307Z,16.63
2024-03-10T11:07:14.363Z,21.50
2024-03-10T11:09:42.610Z,16.02
2024-03-10T11:12:18.929Z,19.48
2024-03-10T11:14:48.678Z,16.58
2024-03-10T11:17:19.391Z,20.30
2024-03-10T11:19:47.367Z,17.70
2024-03-10T11:22:14.099Z,20.60
2024-03-10T11:24:42.446Z,19.25
2024-03-10T11:27:21.967Z,19.90
2024-03-10T11:29:49.290Z,25.88
2024-03-10T11:32:35.315Z,20.70
2024-03-10T11:35:08.358Z,18.15
2024-03-10T11:37:38.858Z,19.00
2024-03-10T11:40:08.379Z,22.42
2024-03-10T11:42:35.096Z,19.65
2024-03-10T11:45:03.815Z,22.08
2024-03-10T11:47:32.746Z,21.70
2024-03-10T11:50:00.361Z,22.75
2024-03-10T11:52:27.012Z,23.73
2024-03-10T11:54:57.634Z,22.63
2024-03-10T11:57:26.748Z,21.50
2024-03-10T11:59:54.935Z,24.83
2024-03-10T12:02:22.693Z,24.33
2024-03-10T12:04:50.273Z,25.48
2024-03-10T12:07:17.166Z,24.42
2024-03-10T12:09:43.739Z,21.13
2024-03-10T12:12:13.421Z,27.13
2024-03-10T12:14:44.087Z,26.35
2024-03-10T12:17:14.739Z,23.35
2024-03-10T12:19:42.934Z,22.63
2024-03-10T12:22:11.965Z,24.33
2024-03-10T12:24:39.174Z,24.33
2024-03-10T12:27:06.008Z,22.13
2024-03-10T12:29:32.766Z,23.35
2024-03-10T12:32:09.659Z,25.85
2024-03-10T12:34:36.264Z,26.23
2024-03-10T12:37:03.390Z,24.33
2024-03-10T12:39:30.053Z,25.17
2024-03-10T12:41:56.742Z,23.67
2024-03-10T12:44:23.606Z,23.60
2024-03-10T12:46:50.206Z,26.35
2024-03-10T12:49:18.179Z,26.67
2024-03-10T12:51:44.828Z,36.65
2024-03-10T12:54:11.470Z,19.88
2024-03-10T12:56:38.182Z,24.98
2024-03-10T12:59:04.953Z,22.63
2024-03-10T13:01:36.028Z,22.50
2024-03-10T13:04:02.722Z,20.52
2024-03-10T13:06:31.768Z,24.67
2024-03-10T13:08:58.378Z,23.90
2024-03-10T13:11:31.802Z,22.25
2024-03-10T13:13:59.423Z,25.08
2024-03-10T13:16:26.719Z,23.65
2024-03-10T13:18:53.390Z,25.08
2024-03-10T13:21:20.100Z,23.52
2024-03-10T13:23:48.267Z,24.90
2024-03-10T13:26:15.587Z,24.02
2024-03-10T13:28:43.491Z,22.20
2024-03-10T13:31:10.711Z,20.23
2024-03-10T13:33:38.884Z,27.30
2024-03-10T13:36:14.127Z,21.15
2024-03-10T13:38:44.523Z,22.77
2024-03-10T13:41:13.116Z,22.08
2024-03-10T13:43:40.922Z,23.13
2024-03-10T13:46:07.652Z,23.15
2024-03-10T13:48:35.114Z,23.05
2024-03-10T13:51:02.145Z,22.65
2024-03-10T13:53:30.255Z,23.55
2024-03-10T13:55:56.972Z,22.75
2024-03-10T13:58:24.968Z,26.52
2024-03-10T14:00:52.393Z,23.20
2024-03-10T14:03:21.012Z,20.15
2024-03-10T14:05:47.789Z,21.25
2024-03-10T14:08:14.460Z,25.02
2024-03-10T14:10:41.092Z,21.75
2024-03-10T14:13:08.709Z,23.10
2024-03-10T14:15:40.960Z,23.27
2024-03-10T14:18:08.513Z,19.52
2024-03-10T14:20:35.491Z,22.73
2024-03-10T14:23:02.213Z,23.45
2024-03-10T14:25:28.904Z,22.95
2024-03-10T14:27:55.550Z,23.38
2024-03-10T14:30:23.918Z,24.67
2024-03-10T14:32:54.920Z,24.60
2024-03-10T14:35:24.790Z,26.35
2024-03-10T14:37:53.411Z,23.30
2024-03-10T14:40:20.268Z,28.85
2024-03-10T14:42:47.572Z,26.30
2024-03-10T14:45:14.286Z,23.98
2024-03-10T14:47:44.156Z,24.00
2024-03-10T14:50:14.259Z,22.13
2024-03-10T14:52:40.894Z,26.48
2024-03-10T14:55:09.268Z,23.40
2024-03-10T14:57:36.236Z,31.70
2024-03-10T15:00:03.738Z,24.08
2024-03-10T15:02:31.044Z,26.55
2024-03-10T15:05:00.054Z,29.90
2024-03-10T15:07:28.175Z,27.02
2024-03-10T15:09:56.976Z,22.52
2024-03-10T15:12:24.524Z,26.48
2024-03-10T15:14:51.495Z,21.10
2024-03-10T15:17:22.482Z,25.58
2024-03-10T15:19:49.070Z,23.80
2024-03-10T15:22:15.629Z,24.58
2024-03-10T15:24:43.560Z,28.38
2024-03-10T15:27:10.185Z,24.50
2024-03-10T15:29:36.870Z,27.20
2024-03-10T15:32:03.748Z,25.27
2024-03-10T15:34:31.697Z,27.67
2024-03-10T15:37:00.413Z,38.08
2024-03-10T15:39:29.379Z,34.28
2024-03-10T15:41:57.973Z,29.52
2024-03-10T15:44:26.076Z,30.48
2024-03-10T15:46:53.283Z,28.45
2024-03-10T15:51:46.735Z,31.88
2024-03-10T15:54:15.354Z,25.65
2024-03-10T15:56:42.057Z,29.23
2024-03-10T15:59:11.412Z,30.73
2024-03-10T16:01:41.248Z,25.58
2024-03-10T16:04:10.092Z,29.38
2024-03-10T16:06:37.189Z,28.58
2024-03-10T16:11:32.734Z,30.95
2024-03-10T16:14:01.375Z,29.33
2024-03-10T16:16:30.922Z,30.13
2024-03-10T16:19:00.657Z,31.38
2024-03-10T16:21:31.438Z,28.88
2024-03-10T16:23:58.004Z,31.55
2024-03-10T16:26:24.689Z,28.73
2024-03-10T16:28:51.442Z,30.10
2024-03-10T16:31:18.967Z,30.02
2024-03-10T16:33:47.056Z,29.40
2024-03-10T16:36:13.903Z,28.17
2024-03-10T16:38:44.364Z,27.95
2024-03-10T16:41:12.240Z,33.10
2024-03-10T16:43:39.584Z,29.35
2024-03-10T16:46:07.137Z,30.00
2024-03-10T16:48:33.823Z,30.20
2024-03-10T16:51:01.796Z,27.83
2024-03-10T16:53:28.506Z,35.05
2024-03-10T16:55:56.078Z,36.00
2024-03-10T16:58:22.759Z,44.95
2024-03-10T17:00:49.903Z,41.67
2024-03-10T17:03:16.876Z,38.25
2024-03-10T17:05:43.676Z,45.08
2024-03-10T17:08:12.327Z,50.03
2024-03-10T17:10:39.425Z,46.50
2024-03-10T17:15:33.812Z,44.75
2024-03-10T17:20:27.418Z,45.35
2024-03-10T17:22:54.213Z,45.33
2024-03-10T17:25:22.208Z,47.47
2024-03-10T17:27:49.212Z,45.55
2024-03-10T17:30:20.267Z,48.80
2024-03-10T17:32:49.776Z,47.35
2024-03-10T17:35:19.863Z,50.13
2024-03-10T17:37:46.647Z,48.28
2024-03-10T17:40:14.899Z,48.53
2024-03-10T17:42:44.891Z,53.03
2024-03-10T17:45:12.506Z,48.05
2024-03-10T17:47:39.670Z,47.72
2024-03-10T17:52:34.850Z,51.95
2024-03-10T17:55:01.558Z,51.70
2024-03-10T17:57:29.028Z,53.90
2024-03-10T17:59:56.954Z,49.40
2024-03-10T18:02:23.577Z,51.70
2024-03-10T18:04:50.260Z,45.88
2024-03-10T18:07:17.454Z,50.17
2024-03-10T18:09:44.175Z,49.63
2024-03-10T18:12:11.648Z,52.38
2024-03-10T18:14:38.259Z,49.53
2024-03-10T18:17:06.997Z,47.40
2024-03-10T18:19:35.499Z,48.65
2024-03-10T18:22:02.365Z,40.00
2024-03-10T18:24:30.254Z,46.13
2024-03-10T18:26:56.867Z,47.80
2024-03-10T18:29:23.476Z,52.45
2024-03-10T18:31:50.078Z,44.92
2024-03-10T18:34:18.055Z,46.80
2024-03-10T18:36:44.737Z,48.60
2024-03-10T18:39:11.970Z,47.53
2024-03-10T18:41:38.766Z,48.78
2024-03-10T18:44:07.741Z,43.92
2024-03-10T18:46:35.191Z,49.00
2024-03-10T18:49:01.882Z,50.08
2024-03-10T18:51:29.914Z,47.92
2024-03-10T18:53:57.294Z,50.55
2024-03-10T18:56:24.186Z,44.00
2024-03-10T18:58:51.687Z,51.70
2024-03-10T19:01:19.275Z,42.83
2024-03-10T19:03:48.403Z,47.97
2024-03-10T19:06:17.310Z,43.35
2024-03-10T19:08:45.985Z,46.40
2024-03-10T19:11:13.127Z,46.47
2024-03-10T19:13:40.876Z,48.85
2024-03-10T19:16:10.376Z,49.85
2024-03-10T19:18:37.469Z,49.97
2024-03-10T19:21:04.849Z,51.47
2024-03-10T19:23:31.660Z,49.83
2024-03-10T19:26:04.142Z,49.22
2024-03-10T19:28:31.074Z,47.60
2024-03-10T19:31:00.080Z,47.47
2024-03-10T19:33:26.733Z,47.30
2024-03-10T19:35:53.472Z,47.03
2024-03-10T19:38:20.168Z,48.85
2024-03-10T19:40:47.306Z,47.97
2024-03-10T19:43:15.569Z,51.65
2024-03-10T19:45:43.451Z,56.05
2024-03-10T19:48:12.160Z,50.70
2024-03-10T19:50:39.165Z,55.00
2024-03-10T19:53:06.188Z,49.10
2024-03-10T19:55:34.635Z,53.03
2024-03-10T19:58:01.863Z,49.92
2024-03-10T20:02:57.895Z,48.65
2024-03-10T20:05:24.597Z,49.67
2024-03-10T20:07:53.749Z,47.58
2024-03-10T20:10:21.771Z,55.00
2024-03-10T20:12:50.762Z,46.75
2024-03-10T20:15:18.114Z,50.90
2024-03-10T20:17:49.352Z,60.40
2024-03-10T20:20:22.823Z,48.47
2024-03-10T20:22:50.150Z,54.13
2024-03-10T20:25:19.416Z,62.72
2024-03-10T20:27:49.136Z,55.10
2024-03-10T20:30:15.846Z,54.10
2024-03-10T20:32:42.945Z,61.95
2024-03-10T20:37:39.481Z,51.08
2024-03-10T20:40:07.378Z,55.22
2024-03-10T20:42:34.085Z,55.03
2024-03-10T20:45:00.742Z,53.30
2024-03-10T20:47:27.363Z,54.03
2024-03-10T20:49:54.190Z,53.45
2024-03-10T20:52:22.459Z,54.30
2024-03-10T20:54:51.519Z,55.10
2024-03-10T20:57:18.078Z,56.58
2024-03-10T20:59:44.756Z,62.47
2024-03-10T21:02:12.813Z,61.03
2024-03-10T21:04:39.519Z,67.38
2024-03-10T21:07:06.131Z,64.90
2024-03-10T21:09:34.098Z,57.40
2024-03-10T21:12:01.212Z,54.47
2024-03-10T21:16:58.017Z,54.28
2024-03-10T21:19:26.175Z,62.05
2024-03-10T21:21:52.866Z,51.40
2024-03-10T21:24:19.445Z,56.58
2024-03-10T21:26:49.040Z,57.47
2024-03-10T21:29:16.419Z,60.05
2024-03-10T21:31:43.019Z,60.15
2024-03-10T21:34:09.685Z,56.60
2024-03-10T21:36:36.540Z,54.60
2024-03-10T21:39:03.785Z,58.58
2024-03-10T21:43:59.287Z,54.83
2024-03-10T21:46:25.947Z,57.50
2024-03-10T21:48:53.517Z,56.50
2024-03-10T21:51:21.060Z,52.22
2024-03-10T21:53:50.762Z,58.63
2024-03-10T21:56:18.091Z,55.13
2024-03-10T21:58:44.788Z,57.17
2024-03-10T22:01:14.047Z,74.22
2024-03-10T22:03:40.705Z,60.80
2024-03-10T22:06:07.256Z,60.30
2024-03-10T22:08:34.051Z,60.03
2024-03-10T22:11:00.844Z,56.42
2024-03-10T22:13:28.980Z,65.13
2024-03-10T22:15:55.572Z,61.90
2024-03-10T22:18:23.522Z,57.88
2024-03-10T22:20:50.258Z,65.22
2024-03-10T22:23:17.222Z,60.72
2024-03-10T22:25:43.940Z,62.78
2024-03-10T22:28:10.569Z,57.13
2024-03-10T22:30:37.739Z,65.45
2024-03-10T22:33:05.149Z,63.75
2024-03-10T22:35:33.258Z,66.20
2024-03-10T22:38:02.224Z,60.00
2024-03-10T22:40:31.940Z,59.40
2024-03-10T22:43:01.362Z,58.47
2024-03-10T22:45:31.412Z,61.53
2024-03-10T22:48:00.761Z,65.97
2024-03-10T22:50:28.195Z,66.50
2024-03-10T22:52:57.066Z,62.67
2024-03-10T22:55:24.228Z,68.05
2024-03-10T22:57:50.978Z,63.38
2024-03-10T23:00:21.034Z,67.40
2024-03-10T23:02:48.418Z,65.72
2024-03-10T23:05:16.757Z,66.07
2024-03-10T23:07:43.427Z,66.03
2024-03-10T23:10:11.933Z,64.15
2024-03-10T23:12:38.530Z,63.03
2024-03-10T23:15:09.548Z,65.78
2024-03-10T23:17:36.470Z,69.40
2024-03-10T23:20:15.570Z,64.63
2024-03-10T23:22:42.255Z,62.78
2024-03-10T23:25:10.775Z,71.25
2024-03-10T23:27:38.571Z,62.63
2024-03-10T23:30:06.029Z,65.55
2024-03-10T23:32:32.691Z,65.50
2024-03-10T23:34:59.363Z,66.68
2024-03-10T23:37:27.268Z,66.10
2024-03-10T23:39:53.919Z,66.53
2024-03-10T23:42:23.479Z,67.93
2024-03-10T23:44:51.822Z,61.38
2024-03-10T23:47:19.960Z,67.53
2024-03-10T23:49:48.590Z,62.13
2024-03-10T23:52:15.334Z,57.92
2024-03-10T23:54:41.897Z,60.63
2024-03-10T23:57:08.488Z,54.50
2024-03-10T23:59:36.462Z,61.75
